Terminal Aerodrome Forecast
Issued by NWS

Home | Current Version | Previous Version | Graphics & Text | Print | Product List | Glossary On
Versions: 1 2 3 4 5 6 7 8 9 10 11 12 13 14 15 16 17 18 19
000
FTUS43 KMPX 241137
TAFAXN
TAF
KAXN 241137Z 2412/2512 VRB03KT 6SM BR SKC
     FM241500 13007KT P6SM SCT015 OVC100
     FM242000 11010KT 3SM -SN OVC012
     FM242100 10011KT 1/2SM SN FG OVC007
     FM250300 24005KT 3/4SM -SN BR OVC007
     FM250600 30008KT P6SM OVC010
     FM251000 28011KT P6SM BKN025=

USA.gov is the U.S. government's official web portal to all federal, state and local government web resources and services.